Time;durP1;ratioP1;P1;durP2;ratioP2;P2;SDS_P1;SDS_P2;PMS_P1;PMS_P2;Temp;Humidity;BMP_temperature;BMP_pressure;BME280_temperature;BME280_humidity;BME280_pressure;Samples;Min_cycle;Max_cycle;Signal;HPM_P1;HPM_P2
2022/12/20 00:01:56;;;;;;;1.40;1.20;;;;;;;;;;5049629;28;20573;-68
2022/12/20 00:04:23;;;;;;;6.90;3.13;;;;;;;;;;5048185;28;20279;-67
2022/12/20 00:06:50;;;;;;;1.37;1.20;;;;;;;;;;5049277;28;20242;-67
2022/12/20 00:09:16;;;;;;;3.33;3.13;;;;;;;;;;5047955;28;20441;-68
2022/12/20 00:11:43;;;;;;;0.30;0.30;;;;;;;;;;5047141;28;20306;-67
2022/12/20 00:14:10;;;;;;;0.30;0.30;;;;;;;;;;5048762;28;20234;-68
2022/12/20 00:16:36;;;;;;;0.30;0.30;;;;;;;;;;5047301;28;20573;-67
2022/12/20 00:19:04;;;;;;;0.23;0.23;;;;;;;;;;5049804;28;20245;-67
2022/12/20 00:21:32;;;;;;;2.40;2.13;;;;;;;;;;5046348;28;20239;-67
2022/12/20 00:23:59;;;;;;;0.33;0.33;;;;;;;;;;5049949;28;20279;-67
2022/12/20 00:26:26;;;;;;;0.43;0.43;;;;;;;;;;5045676;28;20321;-67
2022/12/20 00:28:53;;;;;;;0.20;0.20;;;;;;;;;;5050669;28;20212;-67
2022/12/20 00:31:20;;;;;;;2.43;1.80;;;;;;;;;;5044741;28;20264;-67
2022/12/20 00:33:48;;;;;;;0.40;0.40;;;;;;;;;;5051326;28;20211;-67
2022/12/20 00:36:14;;;;;;;0.40;0.40;;;;;;;;;;5043827;28;20325;-67
2022/12/20 00:38:44;;;;;;;2.63;0.83;;;;;;;;;;5051890;28;20236;-67
2022/12/20 00:41:10;;;;;;;0.90;0.90;;;;;;;;;;5043280;28;20268;-67
2022/12/20 00:43:37;;;;;;;1.50;1.40;;;;;;;;;;5052486;28;20456;-67
2022/12/20 00:46:04;;;;;;;1.63;1.53;;;;;;;;;;5042525;28;20557;-67
2022/12/20 00:48:31;;;;;;;0.30;0.30;;;;;;;;;;5053499;28;20214;-67
2022/12/20 00:50:58;;;;;;;0.73;0.73;;;;;;;;;;5041563;28;20241;-68
2022/12/20 00:53:25;;;;;;;1.60;1.50;;;;;;;;;;5053809;28;20243;-67
2022/12/20 00:55:53;;;;;;;0.70;0.70;;;;;;;;;;5040779;28;20309;-67
2022/12/20 00:58:19;;;;;;;0.40;0.40;;;;;;;;;;5054505;28;20239;-67
2022/12/20 01:00:45;;;;;;;0.20;0.20;;;;;;;;;;5040003;28;20577;-67
2022/12/20 01:03:12;;;;;;;0.37;0.37;;;;;;;;;;5055468;28;20242;-68
2022/12/20 01:05:39;;;;;;;2.43;2.33;;;;;;;;;;5038972;28;20243;-68
2022/12/20 01:08:05;;;;;;;0.70;0.70;;;;;;;;;;5055920;28;20207;-68
2022/12/20 01:10:32;;;;;;;0.67;0.67;;;;;;;;;;5037862;28;20305;-68
2022/12/20 01:13:00;;;;;;;0.30;0.30;;;;;;;;;;5056976;28;20507;-68
2022/12/20 01:15:27;;;;;;;0.20;0.20;;;;;;;;;;5037138;28;20253;-68
2022/12/20 01:17:53;;;;;;;0.60;0.60;;;;;;;;;;5057783;28;20239;-67
2022/12/20 01:20:19;;;;;;;1.20;1.20;;;;;;;;;;5036332;28;20442;-68
2022/12/20 01:22:46;;;;;;;0.57;0.57;;;;;;;;;;5057961;28;20484;-67
2022/12/20 01:25:12;;;;;;;1.60;1.50;;;;;;;;;;5035374;28;20451;-68
2022/12/20 01:27:38;;;;;;;0.47;0.47;;;;;;;;;;5059366;28;20543;-68
2022/12/20 01:30:07;;;;;;;0.37;0.37;;;;;;;;;;5044325;28;20206;-68
2022/12/20 01:32:33;;;;;;;1.00;0.87;;;;;;;;;;5033189;28;20224;-66
2022/12/20 01:35:00;;;;;;;1.43;0.73;;;;;;;;;;5044359;28;20214;-68
2022/12/20 01:37:26;;;;;;;0.20;0.20;;;;;;;;;;5049765;28;20246;-67
2022/12/20 01:39:52;;;;;;;1.23;1.10;;;;;;;;;;5044417;28;20241;-68
2022/12/20 01:42:19;;;;;;;1.70;1.30;;;;;;;;;;5049821;28;20242;-68
2022/12/20 01:45:03;;;;;;;0.20;0.20;;;;;;;;;;5044123;28;20432;-68
2022/12/20 01:47:33;;;;;;;0.20;0.20;;;;;;;;;;5049585;28;20253;-68
2022/12/20 01:50:00;;;;;;;0.30;0.30;;;;;;;;;;5043822;28;20211;-66
2022/12/20 01:52:29;;;;;;;0.30;0.30;;;;;;;;;;5049455;28;20254;-68
2022/12/20 01:54:57;;;;;;;0.20;0.20;;;;;;;;;;5043930;28;20214;-68
2022/12/20 01:57:27;;;;;;;0.30;0.30;;;;;;;;;;5049519;28;20288;-67
2022/12/20 01:59:55;;;;;;;0.67;0.67;;;;;;;;;;5044105;28;20279;-68
2022/12/20 02:02:21;;;;;;;0.30;0.30;;;;;;;;;;5049560;28;20315;-67
2022/12/20 02:04:49;;;;;;;0.30;0.30;;;;;;;;;;5043726;28;20208;-68
2022/12/20 02:07:17;;;;;;;1.17;1.13;;;;;;;;;;5049276;28;20247;-67
2022/12/20 02:09:44;;;;;;;0.30;0.30;;;;;;;;;;5044053;28;20467;-68
2022/12/20 02:12:11;;;;;;;0.20;0.20;;;;;;;;;;5049288;28;20307;-68
2022/12/20 02:14:50;;;;;;;6.13;0.83;;;;;;;;;;5043995;28;20399;-68
2022/12/20 02:17:22;;;;;;;0.10;0.10;;;;;;;;;;5049399;28;20318;-68
2022/12/20 02:20:16;;;;;;;0.40;0.40;;;;;;;;;;5043671;28;20266;-67
2022/12/20 02:22:50;;;;;;;0.27;0.27;;;;;;;;;;5043591;28;20246;-68
2022/12/20 02:25:46;;;;;;;0.20;0.20;;;;;;;;;;5034951;28;20203;-68
2022/12/20 02:28:23;;;;;;;0.20;0.20;;;;;;;;;;5002397;28;20304;-68
2022/12/20 02:30:53;;;;;;;0.20;0.20;;;;;;;;;;5031832;28;20241;-68
2022/12/20 02:33:21;;;;;;;0.40;0.40;;;;;;;;;;5053288;28;20389;-68
2022/12/20 02:35:48;;;;;;;0.20;0.20;;;;;;;;;;5042527;28;20243;-66
2022/12/20 02:38:28;;;;;;;0.20;0.20;;;;;;;;;;5057996;28;20208;-67
2022/12/20 02:40:57;;;;;;;1.67;1.03;;;;;;;;;;5043957;28;20277;-66
2022/12/20 02:46:10;;;;;;;1.03;0.50;;;;;;;;;;5045288;28;20257;-66
2022/12/20 02:48:37;;;;;;;0.40;0.40;;;;;;;;;;5055015;28;20212;-67
2022/12/20 02:51:04;;;;;;;0.20;0.20;;;;;;;;;;5044791;28;20258;-67
2022/12/20 02:53:31;;;;;;;0.20;0.20;;;;;;;;;;5055301;28;20243;-66
2022/12/20 02:56:00;;;;;;;0.20;0.20;;;;;;;;;;5043734;28;20259;-67
2022/12/20 02:58:29;;;;;;;1.17;1.17;;;;;;;;;;5055902;28;20246;-67
2022/12/20 03:00:56;;;;;;;0.20;0.20;;;;;;;;;;5043305;28;20316;-67
2022/12/20 03:03:24;;;;;;;0.93;0.90;;;;;;;;;;5055976;28;20232;-67
2022/12/20 03:05:51;;;;;;;0.20;0.20;;;;;;;;;;5042958;28;20569;-67
2022/12/20 03:08:18;;;;;;;0.70;0.70;;;;;;;;;;5056730;28;20274;-66
2022/12/20 03:10:44;;;;;;;0.20;0.20;;;;;;;;;;5042006;28;20573;-66
2022/12/20 03:13:11;;;;;;;0.20;0.20;;;;;;;;;;5057491;28;20207;-67
2022/12/20 03:15:37;;;;;;;0.27;0.27;;;;;;;;;;5040858;28;20249;-67
2022/12/20 03:18:03;;;;;;;0.67;0.67;;;;;;;;;;5058723;28;20264;-67
2022/12/20 03:20:31;;;;;;;0.30;0.30;;;;;;;;;;5040000;28;20576;-67
2022/12/20 03:22:58;;;;;;;0.43;0.43;;;;;;;;;;5059207;28;20235;-67
2022/12/20 03:25:24;;;;;;;0.37;0.37;;;;;;;;;;5039139;28;20279;-67
2022/12/20 03:27:51;;;;;;;0.20;0.20;;;;;;;;;;5060058;28;20264;-66
2022/12/20 03:30:17;;;;;;;0.23;0.23;;;;;;;;;;5037816;28;20208;-67
2022/12/20 03:32:43;;;;;;;1.70;1.60;;;;;;;;;;5060868;28;20467;-67
2022/12/20 03:35:10;;;;;;;1.87;1.27;;;;;;;;;;5037251;28;20238;-67
2022/12/20 03:37:38;;;;;;;0.50;0.50;;;;;;;;;;5061633;28;20275;-67
2022/12/20 03:40:05;;;;;;;0.57;0.57;;;;;;;;;;5046727;28;20229;-67
2022/12/20 03:42:31;;;;;;;0.80;0.80;;;;;;;;;;5035418;28;20298;-67
2022/12/20 03:44:58;;;;;;;0.23;0.23;;;;;;;;;;5046531;28;20243;-67
2022/12/20 03:47:24;;;;;;;0.40;0.40;;;;;;;;;;5051953;28;20581;-67
2022/12/20 03:49:51;;;;;;;1.80;1.60;;;;;;;;;;5046285;28;20213;-67
2022/12/20 03:52:17;;;;;;;0.83;0.83;;;;;;;;;;5051682;28;20293;-67
2022/12/20 03:54:45;;;;;;;5.57;1.53;;;;;;;;;;5046517;28;20217;-67
2022/12/20 03:57:11;;;;;;;0.87;0.87;;;;;;;;;;5051764;28;20242;-67
2022/12/20 03:59:38;;;;;;;0.20;0.20;;;;;;;;;;5046102;28;20238;-67
2022/12/20 04:02:04;;;;;;;0.73;0.67;;;;;;;;;;5051347;28;20318;-68
2022/12/20 04:04:30;;;;;;;0.87;0.87;;;;;;;;;;5046292;28;20245;-68
2022/12/20 04:06:57;;;;;;;0.20;0.20;;;;;;;;;;5050361;28;20252;-68
2022/12/20 04:09:23;;;;;;;3.80;3.60;;;;;;;;;;5047214;28;20208;-68
2022/12/20 04:11:51;;;;;;;0.20;0.20;;;;;;;;;;5049248;28;20249;-68
2022/12/20 04:14:17;;;;;;;1.13;1.07;;;;;;;;;;5048116;28;20400;-68
2022/12/20 04:16:44;;;;;;;0.40;0.40;;;;;;;;;;5048276;28;20508;-68
2022/12/20 04:19:10;;;;;;;0.20;0.20;;;;;;;;;;5048698;28;20252;-68
2022/12/20 04:21:37;;;;;;;0.20;0.20;;;;;;;;;;5047365;28;20264;-67
2022/12/20 04:24:04;;;;;;;1.13;1.13;;;;;;;;;;5049327;28;20238;-67
2022/12/20 04:26:30;;;;;;;1.23;1.23;;;;;;;;;;5046471;28;20318;-67
2022/12/20 04:28:58;;;;;;;0.20;0.20;;;;;;;;;;5050350;28;20557;-67
2022/12/20 04:31:24;;;;;;;2.03;1.30;;;;;;;;;;5045404;28;20306;-67
2022/12/20 04:33:51;;;;;;;0.40;0.40;;;;;;;;;;5051140;28;20557;-67
2022/12/20 04:36:17;;;;;;;1.30;1.30;;;;;;;;;;5044660;28;20633;-67
2022/12/20 04:38:44;;;;;;;0.83;0.83;;;;;;;;;;5051633;28;20207;-67
2022/12/20 04:41:20;;;;;;;0.20;0.20;;;;;;;;;;5043551;28;20262;-67
2022/12/20 04:43:47;;;;;;;1.77;1.67;;;;;;;;;;5051441;28;20431;-67
2022/12/20 04:46:15;;;;;;;1.33;1.23;;;;;;;;;;5043802;28;20306;-67
2022/12/20 04:48:41;;;;;;;0.30;0.30;;;;;;;;;;5051747;28;20219;-67
2022/12/20 04:51:07;;;;;;;0.20;0.20;;;;;;;;;;5042940;28;20306;-68
2022/12/20 04:53:48;;;;;;;0.40;0.40;;;;;;;;;;5052710;28;20479;-68
2022/12/20 04:56:15;;;;;;;1.17;1.07;;;;;;;;;;5043586;28;20243;-68
2022/12/20 04:58:42;;;;;;;11.07;10.50;;;;;;;;;;5051142;28;20215;-68
2022/12/20 05:01:09;;;;;;;1.67;1.53;;;;;;;;;;5042653;28;20253;-68
2022/12/20 05:03:37;;;;;;;0.40;0.40;;;;;;;;;;5052390;28;20258;-68
2022/12/20 05:06:03;;;;;;;1.07;1.07;;;;;;;;;;5040636;28;20243;-68
2022/12/20 05:08:30;;;;;;;0.60;0.60;;;;;;;;;;5054375;28;20231;-67
2022/12/20 05:10:56;;;;;;;0.40;0.40;;;;;;;;;;5041293;28;20330;-68
2022/12/20 05:13:22;;;;;;;1.23;1.13;;;;;;;;;;5053711;28;20202;-67
2022/12/20 05:15:50;;;;;;;0.23;0.23;;;;;;;;;;5039935;28;20253;-67
2022/12/20 05:18:17;;;;;;;1.90;1.73;;;;;;;;;;5054636;28;20527;-67
2022/12/20 05:20:45;;;;;;;0.73;0.73;;;;;;;;;;5039420;28;20241;-67
2022/12/20 05:28:38;;;;;;;0.53;0.53;;;;;;;;;;5041299;28;20275;-67
2022/12/20 05:31:05;;;;;;;1.73;1.63;;;;;;;;;;5042056;28;20561;-68
2022/12/20 05:33:31;;;;;;;0.20;0.20;;;;;;;;;;5052497;28;20242;-67
2022/12/20 05:35:59;;;;;;;0.20;0.20;;;;;;;;;;5040723;28;20309;-67
2022/12/20 05:38:25;;;;;;;0.20;0.20;;;;;;;;;;5053214;28;20212;-67
2022/12/20 05:40:52;;;;;;;0.50;0.50;;;;;;;;;;5040110;28;20469;-66
2022/12/20 05:43:19;;;;;;;0.27;0.27;;;;;;;;;;5053900;28;20228;-66
2022/12/20 05:45:47;;;;;;;0.20;0.20;;;;;;;;;;5039060;28;20321;-67
2022/12/20 05:48:13;;;;;;;0.53;0.53;;;;;;;;;;5054268;28;20207;-68
2022/12/20 05:50:39;;;;;;;0.20;0.20;;;;;;;;;;5038416;28;20249;-68
2022/12/20 05:53:07;;;;;;;0.37;0.37;;;;;;;;;;5055185;28;20238;-68
2022/12/20 05:55:34;;;;;;;0.83;0.83;;;;;;;;;;5037737;28;20254;-68
2022/12/20 05:58:01;;;;;;;0.53;0.53;;;;;;;;;;5055677;28;20207;-68
2022/12/20 06:00:27;;;;;;;0.20;0.20;;;;;;;;;;5036376;28;20216;-68
2022/12/20 06:02:54;;;;;;;0.20;0.20;;;;;;;;;;5057019;28;20295;-68
2022/12/20 06:05:20;;;;;;;0.20;0.20;;;;;;;;;;5035769;28;20207;-68
2022/12/20 06:07:47;;;;;;;0.50;0.50;;;;;;;;;;5057585;28;20215;-68
2022/12/20 06:10:15;;;;;;;0.57;0.57;;;;;;;;;;5033902;28;20215;-68
2022/12/20 06:12:42;;;;;;;0.73;0.73;;;;;;;;;;5058282;28;20409;-68
2022/12/20 06:15:09;;;;;;;0.20;0.20;;;;;;;;;;5035999;28;20207;-68
2022/12/20 06:17:36;;;;;;;0.93;0.93;;;;;;;;;;5058885;28;20257;-68
2022/12/20 06:20:03;;;;;;;0.20;0.20;;;;;;;;;;5043643;28;20215;-68
2022/12/20 06:22:29;;;;;;;0.30;0.30;;;;;;;;;;5049193;28;20435;-67
2022/12/20 06:24:55;;;;;;;0.67;0.67;;;;;;;;;;5043901;28;20293;-68
2022/12/20 06:27:23;;;;;;;1.33;1.33;;;;;;;;;;5049407;28;20250;-67
2022/12/20 06:29:53;;;;;;;1.23;0.50;;;;;;;;;;5043574;28;20212;-68
2022/12/20 06:32:19;;;;;;;5.83;4.53;;;;;;;;;;5049111;28;20603;-68
2022/12/20 06:34:46;;;;;;;0.30;0.30;;;;;;;;;;5043456;28;20202;-68
2022/12/20 06:37:13;;;;;;;2.53;2.23;;;;;;;;;;5049134;28;20479;-68
2022/12/20 06:39:39;;;;;;;0.63;0.63;;;;;;;;;;5043635;28;20262;-68
2022/12/20 06:42:05;;;;;;;1.63;1.53;;;;;;;;;;5048924;28;20270;-68
2022/12/20 06:44:33;;;;;;;0.43;0.43;;;;;;;;;;5043476;28;20295;-68
2022/12/20 06:47:00;;;;;;;0.20;0.20;;;;;;;;;;5047805;28;20240;-67
2022/12/20 06:49:26;;;;;;;0.20;0.20;;;;;;;;;;5044516;28;20532;-67
2022/12/20 06:51:52;;;;;;;0.87;0.73;;;;;;;;;;5046933;28;20457;-67
2022/12/20 06:54:19;;;;;;;4.13;1.17;;;;;;;;;;5045335;28;20225;-67
2022/12/20 06:56:45;;;;;;;0.70;0.70;;;;;;;;;;5046196;28;20250;-67
2022/12/20 06:59:12;;;;;;;1.80;1.70;;;;;;;;;;5046131;28;20208;-68
2022/12/20 07:01:40;;;;;;;0.30;0.30;;;;;;;;;;5045193;28;20247;-67
2022/12/20 07:04:06;;;;;;;8.00;1.63;;;;;;;;;;5046703;28;20230;-68
2022/12/20 07:06:32;;;;;;;0.50;0.50;;;;;;;;;;5044240;28;20489;-67
2022/12/20 07:08:59;;;;;;;1.07;1.07;;;;;;;;;;5047544;28;20236;-67
2022/12/20 07:11:25;;;;;;;2.13;1.70;;;;;;;;;;5043277;28;20249;-67
2022/12/20 07:13:54;;;;;;;0.20;0.20;;;;;;;;;;5048832;28;20271;-67
2022/12/20 07:16:21;;;;;;;2.23;2.03;;;;;;;;;;5042767;28;20250;-67
2022/12/20 07:18:51;;;;;;;3.30;0.50;;;;;;;;;;5048910;28;20211;-66
2022/12/20 07:21:18;;;;;;;0.20;0.20;;;;;;;;;;5044951;28;20713;-67
2022/12/20 07:23:44;;;;;;;0.20;0.20;;;;;;;;;;5053133;28;20550;-67
2022/12/20 07:26:11;;;;;;;0.30;0.30;;;;;;;;;;5045114;28;20243;-67
2022/12/20 07:28:38;;;;;;;0.20;0.20;;;;;;;;;;5053729;28;20215;-67
2022/12/20 07:31:04;;;;;;;2.47;1.93;;;;;;;;;;5044011;28;20306;-67
2022/12/20 07:33:31;;;;;;;2.83;0.80;;;;;;;;;;5054295;28;20232;-67
2022/12/20 07:36:01;;;;;;;1.20;0.97;;;;;;;;;;5042838;28;20267;-67
2022/12/20 07:38:28;;;;;;;0.30;0.30;;;;;;;;;;5054987;28;20203;-67
2022/12/20 07:40:54;;;;;;;0.47;0.47;;;;;;;;;;5042605;28;20304;-67
2022/12/20 07:43:20;;;;;;;0.30;0.30;;;;;;;;;;5055904;28;20282;-67
2022/12/20 07:45:47;;;;;;;0.20;0.20;;;;;;;;;;5041735;28;20265;-67
2022/12/20 07:48:13;;;;;;;0.20;0.20;;;;;;;;;;5056816;28;20554;-67
2022/12/20 07:50:40;;;;;;;1.50;1.40;;;;;;;;;;5040644;28;20265;-67
2022/12/20 07:53:09;;;;;;;0.20;0.20;;;;;;;;;;5057352;28;20392;-66
2022/12/20 07:55:36;;;;;;;0.20;0.20;;;;;;;;;;5039805;28;20301;-68
2022/12/20 07:58:04;;;;;;;0.27;0.27;;;;;;;;;;5058142;28;20207;-67
2022/12/20 08:00:31;;;;;;;0.70;0.70;;;;;;;;;;5039292;28;20301;-68
2022/12/20 08:03:00;;;;;;;0.70;0.33;;;;;;;;;;5058434;28;20424;-68
2022/12/20 08:05:27;;;;;;;5.73;2.20;;;;;;;;;;5039022;28;20290;-68
2022/12/20 08:07:56;;;;;;;0.60;0.60;;;;;;;;;;5059003;28;20231;-68
2022/12/20 08:10:24;;;;;;;1.40;1.40;;;;;;;;;;5037931;28;20207;-67
2022/12/20 08:12:51;;;;;;;0.73;0.73;;;;;;;;;;5059483;28;20218;-67
2022/12/20 08:15:18;;;;;;;3.03;2.73;;;;;;;;;;5037312;28;20373;-67
2022/12/20 08:17:44;;;;;;;0.20;0.20;;;;;;;;;;5060013;28;20276;-67
2022/12/20 08:20:11;;;;;;;1.77;1.63;;;;;;;;;;5036101;28;20236;-67
2022/12/20 08:22:38;;;;;;;0.20;0.20;;;;;;;;;;5060610;28;20256;-67
2022/12/20 08:25:04;;;;;;;2.50;2.30;;;;;;;;;;5045925;28;20421;-67
2022/12/20 08:27:32;;;;;;;1.50;1.40;;;;;;;;;;5051289;28;20267;-67
2022/12/20 08:29:58;;;;;;;0.60;0.60;;;;;;;;;;5045615;28;20208;-67
2022/12/20 08:32:25;;;;;;;0.30;0.30;;;;;;;;;;5050416;28;20289;-67
2022/12/20 08:34:52;;;;;;;4.70;2.53;;;;;;;;;;5045839;28;20399;-67
2022/12/20 08:37:18;;;;;;;0.20;0.20;;;;;;;;;;5051061;28;20491;-67
2022/12/20 08:39:45;;;;;;;0.20;0.20;;;;;;;;;;5045444;28;20270;-67
2022/12/20 08:42:11;;;;;;;1.10;1.00;;;;;;;;;;5050913;28;20243;-67
2022/12/20 08:44:39;;;;;;;0.20;0.20;;;;;;;;;;5045156;28;20358;-67
2022/12/20 08:47:05;;;;;;;0.20;0.20;;;;;;;;;;5050373;28;20270;-68
2022/12/20 08:49:32;;;;;;;0.57;0.57;;;;;;;;;;5045260;28;20274;-68
2022/12/20 08:51:58;;;;;;;0.30;0.30;;;;;;;;;;5049238;28;20259;-68
2022/12/20 08:54:24;;;;;;;0.80;0.80;;;;;;;;;;5046683;28;20195;-67
2022/12/20 08:56:51;;;;;;;1.13;1.13;;;;;;;;;;5048660;28;20612;-64
2022/12/20 08:59:17;;;;;;;0.30;0.30;;;;;;;;;;5047227;28;20269;-64
2022/12/20 09:01:45;;;;;;;1.07;1.07;;;;;;;;;;5047317;28;20307;-64
2022/12/20 09:04:12;;;;;;;0.50;0.50;;;;;;;;;;5047776;28;20262;-64
2022/12/20 09:06:38;;;;;;;0.50;0.50;;;;;;;;;;5046815;28;20243;-64
2022/12/20 09:09:06;;;;;;;0.67;0.67;;;;;;;;;;5048213;28;20228;-64
2022/12/20 09:11:33;;;;;;;2.43;2.10;;;;;;;;;;5045993;28;20457;-64
2022/12/20 09:13:59;;;;;;;0.57;0.57;;;;;;;;;;5049001;28;20201;-65
2022/12/20 09:16:27;;;;;;;0.20;0.20;;;;;;;;;;5044850;28;20482;-64
2022/12/20 09:18:56;;;;;;;0.40;0.40;;;;;;;;;;5049655;28;20239;-65
2022/12/20 09:21:22;;;;;;;0.20;0.20;;;;;;;;;;5044282;28;20306;-65
2022/12/20 09:23:50;;;;;;;0.20;0.20;;;;;;;;;;5050254;28;20255;-64
2022/12/20 09:26:16;;;;;;;0.47;0.47;;;;;;;;;;5043402;28;20325;-65
2022/12/20 09:28:43;;;;;;;0.20;0.20;;;;;;;;;;5051069;28;20259;-65
2022/12/20 09:31:11;;;;;;;3.73;1.70;;;;;;;;;;5042456;28;20314;-65
2022/12/20 09:33:37;;;;;;;0.20;0.20;;;;;;;;;;5051427;28;20415;-65
2022/12/20 09:36:06;;;;;;;0.27;0.27;;;;;;;;;;5041792;28;20441;-65
2022/12/20 09:38:32;;;;;;;0.53;0.53;;;;;;;;;;5052198;28;20469;-65
2022/12/20 09:41:02;;;;;;;0.20;0.20;;;;;;;;;;5040735;28;20279;-65
2022/12/20 09:43:29;;;;;;;1.90;1.90;;;;;;;;;;5052188;28;20205;-65
2022/12/20 09:45:57;;;;;;;0.73;0.73;;;;;;;;;;5040263;28;20314;-65
2022/12/20 09:48:25;;;;;;;0.30;0.30;;;;;;;;;;5053081;28;20380;-65
2022/12/20 09:50:58;;;;;;;1.17;1.17;;;;;;;;;;5039827;28;20657;-65
2022/12/20 09:53:30;;;;;;;2.70;1.40;;;;;;;;;;5052757;28;20575;-65
2022/12/20 09:55:58;;;;;;;2.43;2.13;;;;;;;;;;5040130;28;20271;-67
2022/12/20 09:58:35;;;;;;;1.23;1.23;;;;;;;;;;5052971;28;20276;-65
2022/12/20 10:01:11;;;;;;;0.20;0.20;;;;;;;;;;5040945;28;20250;-72
2022/12/20 10:03:37;;;;;;;0.20;0.20;;;;;;;;;;5051216;28;20224;-72
2022/12/20 10:06:08;;;;;;;8.63;2.83;;;;;;;;;;5041160;28;20304;-71
2022/12/20 10:08:45;;;;;;;0.73;0.73;;;;;;;;;;5051282;28;20224;-72
2022/12/20 10:11:18;;;;;;;0.23;0.23;;;;;;;;;;5042115;28;20475;-72
2022/12/20 10:13:54;;;;;;;0.50;0.50;;;;;;;;;;5050022;28;20227;-72
2022/12/20 10:16:35;;;;;;;0.30;0.30;;;;;;;;;;5043124;28;20281;-72
2022/12/20 10:19:08;;;;;;;1.60;1.50;;;;;;;;;;5047679;28;20267;-72
2022/12/20 10:21:38;;;;;;;0.30;0.30;;;;;;;;;;5044941;28;20322;-72
2022/12/20 10:24:10;;;;;;;0.30;0.30;;;;;;;;;;5047490;28;20311;-72
2022/12/20 10:26:36;;;;;;;1.70;1.60;;;;;;;;;;5045119;28;20294;-73
2022/12/20 10:29:03;;;;;;;0.37;0.37;;;;;;;;;;5047655;28;20395;-73
2022/12/20 10:31:29;;;;;;;0.20;0.20;;;;;;;;;;5044116;28;20241;-72
2022/12/20 10:33:56;;;;;;;0.60;0.60;;;;;;;;;;5048854;28;20226;-72
2022/12/20 10:36:25;;;;;;;0.20;0.20;;;;;;;;;;5043061;28;20239;-72
2022/12/20 10:38:54;;;;;;;0.60;0.60;;;;;;;;;;5049137;28;20212;-72
2022/12/20 10:41:23;;;;;;;1.23;1.23;;;;;;;;;;5042725;28;20290;-72
2022/12/20 10:43:52;;;;;;;1.70;1.60;;;;;;;;;;5049962;28;20395;-73
2022/12/20 10:46:19;;;;;;;2.77;2.57;;;;;;;;;;5042754;28;20638;-72
2022/12/20 10:48:45;;;;;;;0.50;0.50;;;;;;;;;;5049706;28;20275;-72
2022/12/20 10:51:17;;;;;;;0.20;0.20;;;;;;;;;;5041781;28;20494;-72
2022/12/20 10:53:51;;;;;;;0.50;0.50;;;;;;;;;;5049631;28;20239;-72
2022/12/20 10:56:19;;;;;;;0.50;0.50;;;;;;;;;;5044996;28;20498;-72
2022/12/20 10:58:53;;;;;;;0.30;0.30;;;;;;;;;;5053990;28;20495;-72
2022/12/20 11:01:21;;;;;;;0.50;0.50;;;;;;;;;;5046601;28;20250;-71
2022/12/20 11:03:51;;;;;;;0.57;0.53;;;;;;;;;;5053390;28;20243;-71
2022/12/20 11:06:18;;;;;;;6.67;2.30;;;;;;;;;;5046167;28;20266;-72
2022/12/20 11:08:44;;;;;;;0.50;0.50;;;;;;;;;;5053330;28;20283;-73
2022/12/20 11:11:12;;;;;;;2.03;1.60;;;;;;;;;;5045241;28;20307;-71
2022/12/20 11:13:39;;;;;;;1.73;1.63;;;;;;;;;;5054150;28;20205;-71
2022/12/20 11:16:20;;;;;;;0.20;0.20;;;;;;;;;;5044463;28;20450;-73
2022/12/20 11:18:52;;;;;;;0.50;0.50;;;;;;;;;;5052846;28;20224;-72
2022/12/20 11:21:23;;;;;;;0.23;0.23;;;;;;;;;;5046023;28;20246;-68
2022/12/20 11:23:53;;;;;;;0.37;0.37;;;;;;;;;;5052603;28;20208;-67
2022/12/20 11:26:27;;;;;;;0.20;0.20;;;;;;;;;;5046243;28;20338;-67
2022/12/20 11:29:00;;;;;;;1.20;1.20;;;;;;;;;;5051776;28;20271;-68
2022/12/20 11:31:33;;;;;;;0.20;0.20;;;;;;;;;;5047176;28;20318;-68
2022/12/20 11:34:03;;;;;;;0.43;0.43;;;;;;;;;;5051322;28;20239;-68
2022/12/20 11:36:33;;;;;;;2.10;1.97;;;;;;;;;;5047378;28;20494;-68
2022/12/20 11:39:07;;;;;;;8.83;8.20;;;;;;;;;;5051240;28;20207;-67
2022/12/20 11:41:37;;;;;;;0.93;0.93;;;;;;;;;;5047962;28;20412;-66
2022/12/20 11:44:08;;;;;;;0.33;0.33;;;;;;;;;;5050007;28;20238;-67
2022/12/20 11:46:44;;;;;;;0.20;0.20;;;;;;;;;;5048099;28;20308;-67
2022/12/20 11:49:31;;;;;;;0.20;0.20;;;;;;;;;;5049242;28;20242;-67
2022/12/20 11:52:03;;;;;;;0.20;0.20;;;;;;;;;;5050407;28;20302;-73
2022/12/20 11:54:32;;;;;;;0.30;0.30;;;;;;;;;;5046815;28;20271;-72
2022/12/20 11:57:01;;;;;;;0.20;0.20;;;;;;;;;;5050624;28;20315;-74
2022/12/20 11:59:32;;;;;;;0.33;0.33;;;;;;;;;;5047123;28;20272;-73
2022/12/20 12:02:05;;;;;;;0.20;0.20;;;;;;;;;;5050075;28;20275;-72
2022/12/20 12:04:34;;;;;;;0.50;0.50;;;;;;;;;;5047021;28;20193;-73
2022/12/20 12:07:02;;;;;;;0.10;0.10;;;;;;;;;;5049305;28;20240;-72
2022/12/20 12:09:32;;;;;;;0.10;0.10;;;;;;;;;;5046617;28;20272;-73
2022/12/20 12:12:01;;;;;;;0.10;0.10;;;;;;;;;;5050434;28;20302;-73
2022/12/20 12:14:43;;;;;;;0.10;0.10;;;;;;;;;;5046426;28;20204;-73
2022/12/20 12:17:13;;;;;;;1.57;1.50;;;;;;;;;;5049708;28;20274;-72
2022/12/20 12:19:42;;;;;;;0.20;0.20;;;;;;;;;;5046040;28;20229;-73
2022/12/20 12:22:13;;;;;;;1.73;1.10;;;;;;;;;;5051252;28;20249;-73
2022/12/20 12:24:43;;;;;;;0.20;0.20;;;;;;;;;;5045499;28;20279;-74
2022/12/20 12:27:13;;;;;;;0.63;0.63;;;;;;;;;;5051249;28;20245;-72
2022/12/20 12:29:39;;;;;;;0.70;0.70;;;;;;;;;;5045822;28;20228;-73
2022/12/20 12:32:08;;;;;;;0.30;0.30;;;;;;;;;;5050894;28;20256;-73
2022/12/20 12:34:44;;;;;;;0.33;0.33;;;;;;;;;;5045771;28;20204;-73
2022/12/20 12:37:21;;;;;;;0.20;0.20;;;;;;;;;;5051214;28;20306;-73
2022/12/20 12:40:05;;;;;;;1.17;0.87;;;;;;;;;;5045341;28;20197;-73
2022/12/20 12:42:48;;;;;;;1.63;1.50;;;;;;;;;;5051055;28;20263;-72
2022/12/20 12:45:16;;;;;;;0.20;0.20;;;;;;;;;;5036295;28;20229;-72
2022/12/20 12:47:45;;;;;;;0.27;0.27;;;;;;;;;;5059793;28;20197;-72
2022/12/20 12:50:19;;;;;;;5.43;4.90;;;;;;;;;;5035946;28;20205;-72
2022/12/20 12:52:48;;;;;;;1.57;1.47;;;;;;;;;;5059294;28;20212;-72
2022/12/20 12:55:33;;;;;;;0.77;0.77;;;;;;;;;;5036131;28;20202;-72
2022/12/20 12:58:13;;;;;;;0.10;0.10;;;;;;;;;;5057382;28;20193;-73
2022/12/20 13:00:49;;;;;;;0.20;0.20;;;;;;;;;;5039332;28;20247;-73
2022/12/20 13:03:16;;;;;;;0.30;0.30;;;;;;;;;;5054908;28;20206;-73
2022/12/20 13:05:44;;;;;;;0.20;0.20;;;;;;;;;;5039259;28;20455;-73
2022/12/20 13:08:15;;;;;;;0.20;0.20;;;;;;;;;;5055939;28;20571;-72
2022/12/20 13:10:59;;;;;;;3.20;1.43;;;;;;;;;;5039523;28;20307;-72
2022/12/20 13:13:25;;;;;;;0.20;0.20;;;;;;;;;;5053516;28;20236;-71
2022/12/20 13:16:04;;;;;;;1.70;1.70;;;;;;;;;;5040432;28;20320;-73
2022/12/20 13:18:30;;;;;;;0.20;0.20;;;;;;;;;;5052684;28;20231;-73
2022/12/20 13:21:15;;;;;;;0.23;0.23;;;;;;;;;;5040872;28;20302;-72
2022/12/20 13:23:42;;;;;;;0.20;0.20;;;;;;;;;;5051550;28;20514;-73
2022/12/20 13:26:24;;;;;;;0.60;0.60;;;;;;;;;;5042538;28;20312;-72
2022/12/20 13:28:50;;;;;;;0.40;0.40;;;;;;;;;;5049296;28;20274;-73
2022/12/20 13:31:33;;;;;;;0.10;0.10;;;;;;;;;;5043343;28;20252;-72
2022/12/20 13:34:00;;;;;;;0.60;0.60;;;;;;;;;;5049008;28;20273;-71
2022/12/20 13:36:31;;;;;;;0.30;0.30;;;;;;;;;;5044692;28;20303;-73
2022/12/20 13:39:00;;;;;;;0.20;0.20;;;;;;;;;;5049087;28;20209;-71
2022/12/20 13:41:40;;;;;;;1.57;1.50;;;;;;;;;;5044543;28;20642;-72
2022/12/20 13:44:21;;;;;;;0.20;0.20;;;;;;;;;;5047799;28;20434;-72
2022/12/20 13:46:49;;;;;;;2.33;2.13;;;;;;;;;;5047068;28;20243;-72
2022/12/20 13:49:21;;;;;;;0.27;0.27;;;;;;;;;;5046597;28;20261;-72
2022/12/20 13:51:48;;;;;;;0.40;0.40;;;;;;;;;;5046987;28;20428;-72
2022/12/20 13:54:18;;;;;;;0.10;0.10;;;;;;;;;;5046509;28;20265;-74
2022/12/20 13:56:45;;;;;;;0.67;0.67;;;;;;;;;;5046550;28;20419;-72
2022/12/20 13:59:15;;;;;;;0.47;0.47;;;;;;;;;;5046477;28;20204;-72
2022/12/20 14:01:47;;;;;;;1.70;1.70;;;;;;;;;;5046060;28;20299;-72
2022/12/20 14:04:14;;;;;;;0.20;0.20;;;;;;;;;;5046671;28;20200;-72
2022/12/20 14:06:40;;;;;;;0.60;0.60;;;;;;;;;;5045959;28;20303;-73
2022/12/20 14:09:25;;;;;;;1.73;1.47;;;;;;;;;;5047628;28;20530;-72
2022/12/20 14:11:52;;;;;;;0.97;0.90;;;;;;;;;;5047009;28;20255;-73
2022/12/20 14:14:19;;;;;;;0.20;0.20;;;;;;;;;;5045708;28;20262;-73
2022/12/20 14:16:45;;;;;;;0.73;0.73;;;;;;;;;;5046406;28;20310;-72
2022/12/20 14:19:13;;;;;;;0.20;0.20;;;;;;;;;;5046421;28;20273;-71
2022/12/20 14:21:41;;;;;;;0.23;0.23;;;;;;;;;;5045632;28;20497;-72
2022/12/20 14:24:14;;;;;;;0.10;0.10;;;;;;;;;;5047005;28;20232;-72
2022/12/20 14:26:43;;;;;;;0.30;0.30;;;;;;;;;;5036399;28;20257;-71
2022/12/20 14:29:11;;;;;;;0.20;0.20;;;;;;;;;;5046255;28;20205;-71
2022/12/20 14:31:40;;;;;;;0.43;0.43;;;;;;;;;;5045015;28;20240;-72
2022/12/20 14:34:11;;;;;;;0.30;0.30;;;;;;;;;;5046958;28;20205;-71
2022/12/20 14:36:38;;;;;;;0.53;0.53;;;;;;;;;;5045113;28;20305;-71
2022/12/20 14:39:19;;;;;;;0.10;0.10;;;;;;;;;;5047471;28;20342;-71
2022/12/20 14:41:45;;;;;;;0.20;0.20;;;;;;;;;;5046006;28;20254;-71
2022/12/20 14:44:16;;;;;;;0.20;0.20;;;;;;;;;;5046189;28;20238;-70
2022/12/20 14:46:47;;;;;;;0.63;0.63;;;;;;;;;;5045629;28;20262;-70
2022/12/20 14:49:18;;;;;;;0.20;0.20;;;;;;;;;;5046185;28;20263;-69
2022/12/20 14:51:44;;;;;;;0.23;0.23;;;;;;;;;;5046098;28;20245;-68
2022/12/20 14:54:14;;;;;;;0.83;0.83;;;;;;;;;;5046473;28;20504;-70
2022/12/20 14:56:44;;;;;;;0.20;0.20;;;;;;;;;;5045425;28;20506;-72
2022/12/20 14:59:13;;;;;;;0.30;0.30;;;;;;;;;;5046223;28;20224;-70
2022/12/20 15:01:41;;;;;;;0.20;0.20;;;;;;;;;;5045013;28;20246;-71